createdAt,value
2022-10-17T00:00:46.918Z,4.18
2022-10-17T00:02:49.501Z,3.53
2022-10-17T00:04:53.451Z,3.67
2022-10-17T00:06:56.038Z,3.50
2022-10-17T00:08:58.630Z,3.42
2022-10-17T00:11:02.896Z,3.28
2022-10-17T00:13:05.653Z,3.22
2022-10-17T00:15:09.533Z,3.50
2022-10-17T00:17:12.126Z,3.30
2022-10-17T00:19:14.689Z,3.67
2022-10-17T00:21:20.522Z,3.20
2022-10-17T00:23:23.184Z,3.58
2022-10-17T00:25:25.772Z,3.95
2022-10-17T00:27:28.694Z,3.80
2022-10-17T00:29:31.641Z,3.42
2022-10-17T00:31:35.636Z,3.13
2022-10-17T00:33:39.198Z,3.30
2022-10-17T00:35:41.809Z,2.80
2022-10-17T00:37:45.682Z,3.03
2022-10-17T00:39:48.244Z,3.30
2022-10-17T00:41:50.986Z,3.35
2022-10-17T00:43:56.809Z,3.20
2022-10-17T00:45:59.479Z,3.05
2022-10-17T00:48:06.188Z,3.20
2022-10-17T00:50:09.548Z,3.20
2022-10-17T00:52:16.519Z,3.58
2022-10-17T00:54:23.429Z,3.60
2022-10-17T00:56:26.120Z,3.03
2022-10-17T00:58:28.942Z,2.97
2022-10-17T01:00:32.115Z,2.97
2022-10-17T01:02:34.773Z,2.90
2022-10-17T01:04:37.923Z,3.05
2022-10-17T01:06:40.501Z,3.75
2022-10-17T01:08:43.132Z,3.65
2022-10-17T01:10:58.785Z,3.22
2022-10-17T01:13:12.529Z,3.35
2022-10-17T01:15:24.776Z,3.13
2022-10-17T01:17:36.828Z,3.15
2022-10-17T01:20:00.372Z,3.85
2022-10-17T01:22:10.626Z,3.22
2022-10-17T01:24:43.072Z,3.50
2022-10-17T01:27:00.223Z,3.45
2022-10-17T01:29:30.412Z,4.05
2022-10-17T01:31:39.510Z,3.58
2022-10-17T01:33:52.669Z,3.45
2022-10-17T01:36:03.384Z,3.28
2022-10-17T01:38:12.541Z,3.63
2022-10-17T01:40:21.280Z,2.42
2022-10-17T01:42:28.301Z,3.38
2022-10-17T01:44:37.928Z,3.20
2022-10-17T01:46:46.405Z,3.60
2022-10-17T01:48:49.058Z,3.38
2022-10-17T01:50:54.629Z,3.33
2022-10-17T01:53:03.613Z,4.10
2022-10-17T01:55:11.116Z,2.80
2022-10-17T01:57:21.443Z,3.10
2022-10-17T01:59:28.142Z,3.45
2022-10-17T02:01:32.446Z,3.35
2022-10-17T02:03:36.872Z,3.60
2022-10-17T02:05:42.430Z,3.28
2022-10-17T02:07:45.065Z,3.70
2022-10-17T02:09:47.673Z,3.55
2022-10-17T02:12:13.099Z,3.35
2022-10-17T02:14:30.719Z,3.95
2022-10-17T02:16:39.748Z,3.22
2022-10-17T02:19:08.698Z,3.85
2022-10-17T02:21:17.699Z,3.47
2022-10-17T02:23:28.615Z,3.25
2022-10-17T02:25:38.789Z,3.73
2022-10-17T02:27:49.395Z,3.50
2022-10-17T02:29:58.339Z,3.00
2022-10-17T02:32:04.955Z,3.15
2022-10-17T02:34:13.114Z,3.85
2022-10-17T02:36:20.973Z,3.58
2022-10-17T02:38:25.289Z,2.88
2022-10-17T02:40:31.154Z,3.50
2022-10-17T02:42:34.904Z,3.70
2022-10-17T02:44:40.155Z,3.35
2022-10-17T02:46:46.260Z,3.70
2022-10-17T02:48:51.657Z,3.67
2022-10-17T02:51:03.113Z,3.70
2022-10-17T02:53:12.657Z,3.22
2022-10-17T02:55:18.780Z,4.00
2022-10-17T02:57:28.360Z,3.70
2022-10-17T03:01:40.575Z,3.22
2022-10-17T03:03:43.225Z,3.15
2022-10-17T03:05:45.804Z,3.20
2022-10-17T03:07:49.926Z,4.43
2022-10-17T03:09:52.461Z,3.95
2022-10-17T03:11:55.323Z,3.85
2022-10-17T03:13:57.898Z,3.50
2022-10-17T03:16:00.506Z,3.72
2022-10-17T03:18:03.116Z,3.88
2022-10-17T03:20:06.871Z,3.75
2022-10-17T03:22:09.559Z,3.70
2022-10-17T03:24:13.649Z,3.63
2022-10-17T03:26:16.529Z,3.72
2022-10-17T03:28:19.125Z,3.50
2022-10-17T03:30:21.983Z,3.50
2022-10-17T03:32:24.551Z,3.75
2022-10-17T03:34:27.143Z,3.67
2022-10-17T03:36:29.796Z,4.03
2022-10-17T03:38:32.350Z,4.30
2022-10-17T03:40:36.529Z,4.15
2022-10-17T03:42:39.151Z,4.78
2022-10-17T03:44:41.900Z,4.28
2022-10-17T03:46:44.576Z,4.22
2022-10-17T03:48:47.186Z,4.32
2022-10-17T03:50:50.032Z,4.10
2022-10-17T03:52:52.868Z,3.97
2022-10-17T03:54:55.406Z,3.60
2022-10-17T03:56:59.321Z,4.28
2022-10-17T03:59:01.881Z,3.72
2022-10-17T04:01:05.597Z,3.45
2022-10-17T04:03:08.257Z,3.75
2022-10-17T04:05:10.787Z,3.55
2022-10-17T04:07:13.419Z,3.80
2022-10-17T04:09:16.274Z,3.90
2022-10-17T04:11:20.939Z,3.55
2022-10-17T04:13:24.931Z,3.17
2022-10-17T04:15:27.651Z,3.75
2022-10-17T04:17:35.894Z,4.03
2022-10-17T04:19:40.897Z,4.03
2022-10-17T04:21:45.080Z,3.85
2022-10-17T04:23:47.711Z,3.45
2022-10-17T04:25:50.325Z,4.47
2022-10-17T04:27:52.914Z,3.40
2022-10-17T04:29:56.833Z,4.22
2022-10-17T04:31:59.392Z,3.65
2022-10-17T04:34:01.937Z,4.88
2022-10-17T04:36:07.202Z,3.92
2022-10-17T04:38:09.765Z,3.58
2022-10-17T04:40:12.739Z,3.80
2022-10-17T04:42:15.290Z,3.83
2022-10-17T04:44:18.071Z,4.15
2022-10-17T04:46:22.007Z,4.32
2022-10-17T04:48:24.580Z,3.55
2022-10-17T04:50:27.208Z,4.03
2022-10-17T04:52:30.070Z,3.95
2022-10-17T04:54:32.901Z,3.60
2022-10-17T04:56:35.605Z,3.75
2022-10-17T04:58:38.921Z,4.05
2022-10-17T05:00:41.866Z,4.18
2022-10-17T05:02:45.876Z,3.53
2022-10-17T05:04:48.457Z,3.80
2022-10-17T05:06:50.992Z,4.10
2022-10-17T05:08:53.556Z,3.35
2022-10-17T05:10:56.335Z,3.47
2022-10-17T05:12:58.924Z,3.42
2022-10-17T05:15:01.488Z,3.45
2022-10-17T05:19:25.569Z,3.20
2022-10-17T05:23:38.681Z,4.10
2022-10-17T05:25:41.343Z,3.67
2022-10-17T05:27:43.938Z,3.63
2022-10-17T05:29:46.622Z,4.15
2022-10-17T05:31:49.235Z,4.05
2022-10-17T05:33:51.814Z,3.80
2022-10-17T05:35:55.792Z,4.25
2022-10-17T05:38:00.009Z,5.05
2022-10-17T05:40:02.734Z,4.55
2022-10-17T05:42:05.452Z,4.50
2022-10-17T05:44:08.069Z,4.78
2022-10-17T05:46:10.967Z,6.20
2022-10-17T05:48:13.531Z,5.25
2022-10-17T05:50:16.254Z,5.30
2022-10-17T05:52:20.271Z,5.70
2022-10-17T05:54:22.832Z,5.30
2022-10-17T05:56:25.373Z,4.75
2022-10-17T06:00:51.603Z,4.75
2022-10-17T06:02:54.164Z,5.80
2022-10-17T06:04:56.715Z,4.68
2022-10-17T06:06:59.303Z,5.22
2022-10-17T06:09:03.255Z,5.45
2022-10-17T06:11:09.203Z,5.78
2022-10-17T06:13:12.976Z,5.57
2022-10-17T06:15:15.548Z,5.55
2022-10-17T06:17:18.221Z,4.63
2022-10-17T06:19:20.882Z,4.40
2022-10-17T06:21:25.380Z,4.68
2022-10-17T06:23:28.510Z,4.90
2022-10-17T06:25:33.808Z,4.72
2022-10-17T06:27:36.444Z,4.65
2022-10-17T06:29:39.097Z,5.53
2022-10-17T06:31:41.653Z,4.80
2022-10-17T06:33:44.519Z,5.15
2022-10-17T06:35:52.223Z,5.60
2022-10-17T06:37:54.830Z,4.93
2022-10-17T06:39:57.423Z,6.00
2022-10-17T06:42:01.901Z,6.15
2022-10-17T06:44:10.827Z,5.32
2022-10-17T06:46:14.561Z,6.38
2022-10-17T06:48:17.151Z,4.75
2022-10-17T06:50:19.748Z,3.83
2022-10-17T06:52:22.462Z,3.90
2022-10-17T06:54:25.168Z,4.40
2022-10-17T06:56:27.769Z,3.65
2022-10-17T06:58:33.408Z,3.92
2022-10-17T07:00:36.082Z,4.03
2022-10-17T07:02:38.731Z,3.58
2022-10-17T07:04:41.323Z,3.88
2022-10-17T07:06:43.909Z,3.50
2022-10-17T07:08:47.140Z,3.65
2022-10-17T07:10:51.187Z,3.58
2022-10-17T07:12:53.854Z,3.38
2022-10-17T07:14:57.719Z,3.95
2022-10-17T07:17:00.499Z,3.88
2022-10-17T07:19:03.079Z,3.40
2022-10-17T07:21:06.048Z,3.80
2022-10-17T07:23:08.662Z,3.60
2022-10-17T07:25:11.223Z,3.50
2022-10-17T07:27:13.927Z,3.28
2022-10-17T07:29:16.520Z,3.22
2022-10-17T07:31:22.347Z,3.65
2022-10-17T07:33:24.999Z,3.63
2022-10-17T07:35:27.840Z,3.22
2022-10-17T07:37:30.760Z,3.83
2022-10-17T07:39:35.580Z,3.78
2022-10-17T07:41:38.203Z,3.33
2022-10-17T07:43:42.831Z,3.35
2022-10-17T07:45:45.393Z,3.75
2022-10-17T07:47:49.368Z,2.97
2022-10-17T07:49:51.952Z,3.15
2022-10-17T07:51:54.562Z,3.67
2022-10-17T07:53:57.107Z,3.50
2022-10-17T07:55:59.712Z,3.90
2022-10-17T07:58:02.261Z,3.30
2022-10-17T08:00:05.617Z,3.25
2022-10-17T08:02:08.477Z,2.95
2022-10-17T08:04:12.438Z,3.15
2022-10-17T08:06:15.650Z,3.75
2022-10-17T08:08:18.201Z,4.03
2022-10-17T08:10:21.395Z,3.38
2022-10-17T08:12:25.878Z,3.45
2022-10-17T08:14:28.470Z,8.32
2022-10-17T08:16:31.047Z,4.80
2022-10-17T08:18:33.653Z,3.22
2022-10-17T08:20:37.918Z,3.35
2022-10-17T08:22:40.476Z,4.00
2022-10-17T08:24:44.455Z,3.38
2022-10-17T08:26:49.577Z,3.40
2022-10-17T08:28:54.342Z,3.83
2022-10-17T08:31:03.527Z,2.85
2022-10-17T08:33:06.233Z,3.40
2022-10-17T08:35:09.579Z,2.88
2022-10-17T08:37:13.935Z,3.15
2022-10-17T08:39:16.501Z,4.00
2022-10-17T08:41:34.878Z,2.92
2022-10-17T08:43:47.831Z,3.15
2022-10-17T08:45:55.720Z,3.10
2022-10-17T08:48:00.733Z,3.08
2022-10-17T08:50:05.131Z,2.97
2022-10-17T08:52:16.551Z,3.03
2022-10-17T08:54:23.599Z,3.28
2022-10-17T08:56:44.429Z,3.25
2022-10-17T08:58:50.757Z,3.40
2022-10-17T09:01:03.107Z,3.38
2022-10-17T09:03:21.220Z,3.63
2022-10-17T09:05:36.862Z,2.97
2022-10-17T09:07:51.023Z,3.17
2022-10-17T09:10:03.191Z,3.50
2022-10-17T09:12:21.814Z,3.47
2022-10-17T09:14:59.730Z,3.33
2022-10-17T09:17:13.583Z,2.80
2022-10-17T09:19:22.317Z,3.22
2022-10-17T09:21:31.571Z,2.67
2022-10-17T09:23:48.186Z,3.28
2022-10-17T09:25:54.892Z,3.33
2022-10-17T09:28:07.311Z,3.67
2022-10-17T09:30:46.366Z,3.33
2022-10-17T09:32:49.340Z,3.67
2022-10-17T09:34:53.025Z,3.95
2022-10-17T09:36:56.809Z,4.28
2022-10-17T09:39:03.263Z,4.60
2022-10-17T09:41:39.324Z,4.28
2022-10-17T09:43:38.340Z,3.40
2022-10-17T09:45:46.955Z,3.40
2022-10-17T09:47:59.612Z,3.75
2022-10-17T09:50:04.634Z,4.30
2022-10-17T09:52:13.345Z,3.05
2022-10-17T09:54:23.745Z,3.85
2022-10-17T09:56:26.327Z,4.30
2022-10-17T09:58:41.694Z,3.80
2022-10-17T10:00:47.374Z,5.00
2022-10-17T10:02:49.984Z,2.90
2022-10-17T10:05:06.862Z,3.50
2022-10-17T10:07:14.072Z,2.60
2022-10-17T10:09:25.638Z,2.80
2022-10-17T10:11:46.803Z,3.00
2022-10-17T10:13:50.207Z,3.55
2022-10-17T10:15:52.895Z,2.63
2022-10-17T10:17:55.501Z,3.20
2022-10-17T10:19:58.064Z,3.00
2022-10-17T10:22:02.710Z,2.95
2022-10-17T10:24:12.281Z,2.90
2022-10-17T10:26:28.417Z,2.92
2022-10-17T10:28:33.014Z,2.97
2022-10-17T10:30:39.058Z,3.30
2022-10-17T10:32:48.529Z,2.97
2022-10-17T10:34:54.209Z,2.92
2022-10-17T10:37:02.070Z,2.92
2022-10-17T10:39:05.404Z,2.80
2022-10-17T10:41:11.074Z,3.03
2022-10-17T10:43:24.399Z,2.47
2022-10-17T10:45:46.983Z,2.85
2022-10-17T10:47:52.900Z,3.40
2022-10-17T10:50:18.401Z,3.20
2022-10-17T10:52:43.033Z,3.38
2022-10-17T10:54:55.177Z,2.47
2022-10-17T10:57:00.997Z,2.97
2022-10-17T10:59:11.548Z,2.70
2022-10-17T11:01:23.475Z,2.90
2022-10-17T11:03:32.398Z,3.13
2022-10-17T11:05:42.758Z,3.25
2022-10-17T11:07:52.337Z,2.97
2022-10-17T11:09:59.755Z,3.33
2022-10-17T11:12:08.933Z,2.40
2022-10-17T11:14:19.340Z,2.70
2022-10-17T11:16:32.633Z,2.80
2022-10-17T11:18:43.775Z,2.65
2022-10-17T11:20:53.982Z,2.47
2022-10-17T11:23:02.535Z,2.28
2022-10-17T11:25:16.122Z,2.67
2022-10-17T11:27:18.737Z,2.15
2022-10-17T11:29:25.955Z,2.10
2022-10-17T11:31:32.439Z,2.28
2022-10-17T11:33:43.665Z,2.28
2022-10-17T11:35:50.086Z,2.40
2022-10-17T11:37:59.231Z,2.03
2022-10-17T11:40:07.278Z,2.22
2022-10-17T11:42:15.530Z,2.15
2022-10-17T11:44:26.181Z,2.17
2022-10-17T11:46:29.571Z,1.90
2022-10-17T11:48:40.448Z,2.55
2022-10-17T11:53:15.637Z,2.70
2022-10-17T11:55:22.692Z,3.08
2022-10-17T11:57:45.859Z,2.63
2022-10-17T12:00:04.003Z,2.92
2022-10-17T12:02:12.971Z,2.90
2022-10-17T12:04:29.899Z,3.03
2022-10-17T12:06:45.169Z,3.10
2022-10-17T12:08:54.985Z,3.03
2022-10-17T12:11:02.264Z,2.83
2022-10-17T12:13:41.717Z,2.83
2022-10-17T12:15:46.735Z,2.40
2022-10-17T12:17:56.492Z,2.50
2022-10-17T12:20:28.549Z,2.35
2022-10-17T12:24:41.311Z,1.88
2022-10-17T12:26:46.627Z,2.25
2022-10-17T12:28:49.429Z,2.33
2022-10-17T12:30:56.810Z,2.08
2022-10-17T12:33:06.531Z,2.05
2022-10-17T12:35:21.766Z,2.80
2022-10-17T12:38:01.199Z,1.92
2022-10-17T12:40:04.088Z,1.65
2022-10-17T12:42:31.288Z,2.10
2022-10-17T12:44:38.668Z,1.98
2022-10-17T12:46:52.281Z,1.80
2022-10-17T12:49:04.603Z,1.80
2022-10-17T12:51:34.170Z,2.17
2022-10-17T12:53:41.906Z,1.80
2022-10-17T12:55:44.470Z,1.63
2022-10-17T12:57:58.349Z,1.35
2022-10-17T13:00:04.897Z,1.85
2022-10-17T13:02:18.280Z,1.30
2022-10-17T13:04:22.169Z,1.40
2022-10-17T13:06:27.940Z,1.33
2022-10-17T13:08:32.769Z,1.35
2022-10-17T13:10:36.460Z,1.45
2022-10-17T13:12:41.356Z,1.52
2022-10-17T13:14:47.020Z,1.52
2022-10-17T13:16:55.046Z,1.30
2022-10-17T13:18:59.353Z,1.45
2022-10-17T13:21:04.621Z,1.83
2022-10-17T13:23:07.449Z,2.47
2022-10-17T13:25:16.385Z,1.20
2022-10-17T13:27:30.009Z,1.50
2022-10-17T13:29:33.260Z,1.35
2022-10-17T13:31:37.697Z,1.40
2022-10-17T13:33:42.281Z,1.77
2022-10-17T13:35:59.941Z,1.13
2022-10-17T13:38:07.468Z,1.45
2022-10-17T13:40:40.233Z,1.63
2022-10-17T13:42:42.308Z,1.40
2022-10-17T13:44:45.106Z,1.20
2022-10-17T13:46:48.072Z,1.38
2022-10-17T13:48:50.792Z,1.35
2022-10-17T13:50:59.109Z,1.70
2022-10-17T13:53:25.470Z,1.50
2022-10-17T13:55:28.181Z,2.22
2022-10-17T13:57:32.771Z,1.40
2022-10-17T13:59:40.541Z,1.90
2022-10-17T14:01:43.581Z,1.15
2022-10-17T14:03:49.796Z,1.42
2022-10-17T14:06:12.620Z,1.90
2022-10-17T14:08:22.765Z,1.48
2022-10-17T14:10:27.703Z,1.90
2022-10-17T14:12:30.352Z,1.60
2022-10-17T14:14:51.635Z,1.50
2022-10-17T14:16:56.500Z,1.77
2022-10-17T14:18:59.128Z,1.40
2022-10-17T14:23:35.304Z,1.60
2022-10-17T14:27:58.089Z,2.00
2022-10-17T14:30:06.926Z,1.65
2022-10-17T14:32:14.767Z,1.75
2022-10-17T14:34:23.006Z,1.85
2022-10-17T14:36:38.512Z,1.63
2022-10-17T14:38:46.511Z,2.10
2022-10-17T14:40:52.210Z,1.80
2022-10-17T14:42:56.717Z,1.88
2022-10-17T14:45:09.000Z,2.10
2022-10-17T14:47:42.269Z,2.13
2022-10-17T14:49:42.806Z,2.47
2022-10-17T14:52:19.168Z,1.98
2022-10-17T14:54:26.809Z,1.63
2022-10-17T14:56:37.393Z,1.83
2022-10-17T14:58:40.076Z,1.77
2022-10-17T15:00:42.640Z,2.10
2022-10-17T15:02:46.193Z,2.10
2022-10-17T15:04:48.831Z,2.28
2022-10-17T15:06:55.779Z,2.00
2022-10-17T15:08:58.843Z,2.75
2022-10-17T15:11:02.815Z,1.90
2022-10-17T15:15:28.783Z,1.60
2022-10-17T15:17:32.371Z,2.13
2022-10-17T15:19:35.041Z,1.70
2022-10-17T15:21:40.815Z,1.70
2022-10-17T15:23:47.356Z,2.10
2022-10-17T15:25:50.047Z,2.70
2022-10-17T15:27:54.647Z,1.83
2022-10-17T15:29:57.253Z,2.65
2022-10-17T15:31:59.847Z,2.70
2022-10-17T15:34:02.492Z,2.78
2022-10-17T15:36:05.409Z,2.70
2022-10-17T15:38:08.470Z,2.30
2022-10-17T15:40:15.773Z,2.75
2022-10-17T15:42:18.346Z,2.72
2022-10-17T15:44:22.421Z,3.15
2022-10-17T15:46:27.268Z,2.85
2022-10-17T15:48:32.628Z,2.70
2022-10-17T15:50:35.224Z,3.72
2022-10-17T15:52:37.803Z,4.15
2022-10-17T15:54:40.744Z,3.95
2022-10-17T15:56:44.421Z,3.92
2022-10-17T15:58:47.393Z,4.18
2022-10-17T16:00:51.697Z,4.43
2022-10-17T16:02:54.448Z,4.35
2022-10-17T16:04:58.530Z,4.35
2022-10-17T16:07:01.137Z,3.83
2022-10-17T16:09:03.712Z,3.78
2022-10-17T16:11:06.565Z,3.70
2022-10-17T16:13:18.312Z,2.97
2022-10-17T16:17:26.831Z,3.58
2022-10-17T16:19:30.038Z,3.67
2022-10-17T16:21:34.777Z,3.53
2022-10-17T16:23:37.693Z,4.13
2022-10-17T16:25:40.780Z,4.25
2022-10-17T16:27:43.549Z,3.72
2022-10-17T16:29:46.112Z,4.18
2022-10-17T16:31:48.685Z,3.72
2022-10-17T16:33:56.825Z,3.67
2022-10-17T16:35:59.442Z,4.20
2022-10-17T16:38:02.010Z,4.40
2022-10-17T16:40:05.323Z,3.80
2022-10-17T16:42:07.979Z,4.07
2022-10-17T16:44:14.491Z,3.72
2022-10-17T16:46:17.525Z,3.70
2022-10-17T16:48:20.192Z,3.45
2022-10-17T16:50:24.420Z,2.78
2022-10-17T16:52:27.237Z,4.40
2022-10-17T16:54:30.161Z,3.47
2022-10-17T16:56:32.967Z,3.58
2022-10-17T16:58:35.628Z,3.58
2022-10-17T17:00:39.895Z,3.60
2022-10-17T17:02:42.512Z,3.35
2022-10-17T17:04:45.194Z,3.35
2022-10-17T17:06:49.343Z,3.40
2022-10-17T17:08:52.242Z,3.70
2022-10-17T17:10:55.519Z,3.25
2022-10-17T17:12:58.470Z,4.05
2022-10-17T17:15:01.145Z,3.28
2022-10-17T17:17:03.720Z,4.13
2022-10-17T17:19:08.404Z,3.33
2022-10-17T17:21:11.790Z,3.67
2022-10-17T17:23:16.088Z,4.15
2022-10-17T17:25:18.736Z,3.53
2022-10-17T17:27:21.553Z,4.15
2022-10-17T17:29:25.606Z,3.67
2022-10-17T17:31:30.913Z,3.72
2022-10-17T17:33:33.775Z,3.75
2022-10-17T17:35:39.823Z,3.25
2022-10-17T17:37:42.814Z,3.40
2022-10-17T17:39:46.762Z,3.42
2022-10-17T17:41:49.321Z,5.07
2022-10-17T17:43:52.327Z,3.17
2022-10-17T17:45:54.923Z,3.33
2022-10-17T17:47:57.805Z,3.85
2022-10-17T17:50:00.462Z,3.58
2022-10-17T17:54:11.430Z,3.95
2022-10-17T17:56:17.185Z,3.95
2022-10-17T17:58:19.751Z,3.97
2022-10-17T18:00:22.364Z,4.38
2022-10-17T18:02:24.999Z,3.90
2022-10-17T18:04:28.145Z,4.13
2022-10-17T18:06:30.760Z,4.75
2022-10-17T18:08:33.656Z,4.38
2022-10-17T18:10:36.284Z,4.55
2022-10-17T18:12:40.263Z,4.82
2022-10-17T18:14:42.850Z,4.60
2022-10-17T18:16:45.486Z,4.72
2022-10-17T18:18:48.367Z,5.43
2022-10-17T18:20:50.937Z,4.95
2022-10-17T18:22:53.493Z,4.53
2022-10-17T18:24:56.052Z,4.63
2022-10-17T18:26:59.832Z,4.60
2022-10-17T18:29:04.543Z,4.45
2022-10-17T18:31:08.194Z,5.00
2022-10-17T18:33:10.749Z,4.65
2022-10-17T18:35:13.442Z,5.15
2022-10-17T18:37:16.496Z,4.38
2022-10-17T18:39:19.187Z,4.68
2022-10-17T18:41:24.099Z,4.60
2022-10-17T18:43:26.679Z,4.47
2022-10-17T18:45:30.604Z,4.82
2022-10-17T18:47:33.236Z,4.15
2022-10-17T18:49:36.407Z,5.43
2022-10-17T18:51:39.616Z,4.43
2022-10-17T18:53:43.141Z,4.45
2022-10-17T18:57:50.023Z,4.57
2022-10-17T18:59:52.601Z,4.00
2022-10-17T19:01:56.694Z,4.00
2022-10-17T19:04:00.279Z,4.13
2022-10-17T19:06:03.795Z,3.90
2022-10-17T19:08:06.984Z,4.40
2022-10-17T19:10:10.218Z,4.95
2022-10-17T19:12:12.789Z,6.05
2022-10-17T19:14:15.438Z,7.20
2022-10-17T19:16:19.963Z,5.10
2022-10-17T19:18:23.922Z,4.80
2022-10-17T19:20:26.644Z,4.78
2022-10-17T19:22:31.197Z,4.28
2022-10-17T19:24:33.820Z,3.90
2022-10-17T19:26:37.614Z,4.68
2022-10-17T19:28:42.118Z,4.25
2022-10-17T19:30:44.846Z,4.03
2022-10-17T19:32:48.380Z,3.95
2022-10-17T19:34:52.261Z,3.45
2022-10-17T19:36:55.690Z,3.00
2022-10-17T19:38:58.704Z,3.20
2022-10-17T19:41:01.489Z,3.55
2022-10-17T19:43:04.389Z,3.58
2022-10-17T19:45:08.554Z,3.25
2022-10-17T19:47:11.112Z,3.35
2022-10-17T19:49:14.078Z,3.13
2022-10-17T19:51:20.002Z,3.03
2022-10-17T19:53:24.411Z,2.90
2022-10-17T19:55:26.981Z,3.30
2022-10-17T19:57:29.505Z,3.03
2022-10-17T19:59:32.082Z,3.33
2022-10-17T20:01:36.061Z,3.10
2022-10-17T20:03:38.820Z,2.97
2022-10-17T20:05:41.425Z,3.67
2022-10-17T20:07:48.349Z,4.15
2022-10-17T20:09:51.085Z,3.47
2022-10-17T20:11:53.640Z,3.70
2022-10-17T20:13:57.103Z,3.50
2022-10-17T20:15:59.958Z,3.92
2022-10-17T20:18:02.908Z,4.70
2022-10-17T20:20:08.742Z,4.47
2022-10-17T20:22:11.638Z,4.82
2022-10-17T20:24:17.457Z,4.97
2022-10-17T20:26:37.540Z,4.88
2022-10-17T20:28:41.944Z,4.65
2022-10-17T20:30:46.503Z,4.00
2022-10-17T20:32:49.175Z,3.75
2022-10-17T20:34:51.874Z,3.97
2022-10-17T20:36:54.481Z,3.65
2022-10-17T20:38:58.676Z,3.97
2022-10-17T20:41:03.677Z,3.50
2022-10-17T20:43:08.445Z,3.85
2022-10-17T20:45:12.176Z,4.10
2022-10-17T20:47:26.492Z,4.53
2022-10-17T20:49:35.517Z,4.38
2022-10-17T20:51:38.364Z,4.03
2022-10-17T20:53:40.929Z,3.83
2022-10-17T20:55:43.670Z,4.38
2022-10-17T20:57:47.719Z,4.18
2022-10-17T20:59:50.498Z,4.80
2022-10-17T21:01:54.848Z,4.10
2022-10-17T21:04:06.169Z,5.05
2022-10-17T21:06:19.604Z,4.20
2022-10-17T21:08:22.319Z,4.93
2022-10-17T21:10:34.948Z,3.85
2022-10-17T21:12:53.096Z,4.38
2022-10-17T21:14:58.107Z,5.00
2022-10-17T21:17:04.763Z,3.75
2022-10-17T21:19:08.065Z,3.45
2022-10-17T21:21:13.494Z,3.60
2022-10-17T21:23:16.090Z,4.40
2022-10-17T21:25:19.331Z,4.10
2022-10-17T21:27:21.924Z,3.40
2022-10-17T21:29:25.038Z,4.07
2022-10-17T21:31:29.024Z,3.97
2022-10-17T21:33:34.351Z,4.38
2022-10-17T21:35:36.937Z,3.75
2022-10-17T21:37:39.531Z,4.28
2022-10-17T21:39:42.112Z,4.40
2022-10-17T21:41:45.638Z,4.18
2022-10-17T21:43:49.218Z,4.60
2022-10-17T21:45:51.802Z,4.53
2022-10-17T21:48:12.351Z,4.55
2022-10-17T21:50:15.429Z,4.32
2022-10-17T21:52:18.009Z,4.60
2022-10-17T21:54:22.845Z,4.00
2022-10-17T21:56:28.649Z,4.80
2022-10-17T21:58:31.926Z,4.00
2022-10-17T22:00:34.537Z,3.80
2022-10-17T22:02:37.145Z,4.35
2022-10-17T22:04:41.091Z,4.35
2022-10-17T22:06:45.792Z,3.78
2022-10-17T22:08:48.960Z,4.28
2022-10-17T22:10:51.532Z,4.22
2022-10-17T22:12:54.081Z,3.60
2022-10-17T22:14:56.634Z,3.85
2022-10-17T22:16:59.244Z,3.97
2022-10-17T22:19:06.184Z,4.20
2022-10-17T22:21:13.351Z,4.13
2022-10-17T22:23:15.928Z,4.07
2022-10-17T22:25:18.560Z,4.10
2022-10-17T22:27:21.108Z,4.05
2022-10-17T22:29:23.709Z,3.90
2022-10-17T22:31:26.942Z,3.72
2022-10-17T22:33:29.622Z,4.47
2022-10-17T22:35:32.183Z,3.72
2022-10-17T22:37:36.436Z,4.15
2022-10-17T22:39:39.597Z,5.55
2022-10-17T22:41:42.216Z,3.80
2022-10-17T22:43:44.863Z,4.28
2022-10-17T22:45:52.804Z,4.53
2022-10-17T22:47:55.448Z,3.70
2022-10-17T22:49:58.381Z,4.40
2022-10-17T22:52:00.998Z,3.95
2022-10-17T22:54:05.103Z,3.92
2022-10-17T22:56:10.385Z,4.18
2022-10-17T22:58:13.004Z,4.25
2022-10-17T23:00:17.055Z,4.45
2022-10-17T23:02:19.786Z,4.40
2022-10-17T23:04:23.227Z,4.25
2022-10-17T23:06:25.830Z,4.25
2022-10-17T23:08:28.905Z,4.07
2022-10-17T23:10:32.847Z,4.72
2022-10-17T23:12:35.388Z,4.20
2022-10-17T23:14:38.450Z,3.90
2022-10-17T23:16:41.025Z,4.25
2022-10-17T23:18:44.088Z,4.13
2022-10-17T23:20:46.814Z,4.03
2022-10-17T23:22:49.749Z,5.07
2022-10-17T23:24:52.569Z,3.67
2022-10-17T23:26:56.739Z,4.40
2022-10-17T23:28:59.326Z,3.53
2022-10-17T23:31:10.163Z,4.38
2022-10-17T23:33:13.700Z,4.20
2022-10-17T23:35:16.458Z,4.10
2022-10-17T23:37:19.457Z,3.55
2022-10-17T23:39:22.401Z,3.92
2022-10-17T23:41:24.990Z,3.88
2022-10-17T23:43:29.849Z,3.67
2022-10-17T23:45:36.039Z,3.97
2022-10-17T23:47:39.795Z,3.83
2022-10-17T23:49:42.407Z,3.50
2022-10-17T23:51:45.082Z,3.83
2022-10-17T23:53:48.113Z,3.92
2022-10-17T23:55:51.153Z,3.50
2022-10-17T23:57:53.777Z,4.38
2022-10-17T23:59:57.727Z,4.47
